sensor_id;sensor_type;location;lat;lon;timestamp;P1;durP1;ratioP1;P2;durP2;ratioP2
3875;SDS011;1953;51.222;6.624;2022-10-16T00:07:38;5.97;;;4.50;;
3875;SDS011;1953;51.222;6.624;2022-10-16T00:12:20;7.23;;;4.37;;
3875;SDS011;1953;51.222;6.624;2022-10-16T00:17:03;6.50;;;3.77;;
3875;SDS011;1953;51.222;6.624;2022-10-16T00:21:45;4.60;;;2.90;;
3875;SDS011;1953;51.222;6.624;2022-10-16T00:26:29;6.93;;;3.50;;
3875;SDS011;1953;51.222;6.624;2022-10-16T00:31:14;5.07;;;3.47;;
3875;SDS011;1953;51.222;6.624;2022-10-16T00:35:57;4.83;;;3.47;;
3875;SDS011;1953;51.222;6.624;2022-10-16T00:40:40;8.70;;;2.83;;
3875;SDS011;1953;51.222;6.624;2022-10-16T00:45:24;12.17;;;3.30;;
3875;SDS011;1953;51.222;6.624;2022-10-16T00:50:07;10.70;;;3.70;;
3875;SDS011;1953;51.222;6.624;2022-10-16T00:54:53;4.73;;;3.13;;
3875;SDS011;1953;51.222;6.624;2022-10-16T00:59:37;5.13;;;3.07;;
3875;SDS011;1953;51.222;6.624;2022-10-16T01:04:22;6.07;;;3.13;;
3875;SDS011;1953;51.222;6.624;2022-10-16T01:09:09;6.97;;;3.20;;
3875;SDS011;1953;51.222;6.624;2022-10-16T01:13:57;5.43;;;2.60;;
3875;SDS011;1953;51.222;6.624;2022-10-16T01:18:44;5.30;;;2.80;;
3875;SDS011;1953;51.222;6.624;2022-10-16T01:23:36;8.90;;;3.33;;
3875;SDS011;1953;51.222;6.624;2022-10-16T01:28:29;9.23;;;2.90;;
3875;SDS011;1953;51.222;6.624;2022-10-16T01:33:19;11.30;;;2.90;;
3875;SDS011;1953;51.222;6.624;2022-10-16T01:38:04;6.23;;;3.40;;
3875;SDS011;1953;51.222;6.624;2022-10-16T01:42:50;8.93;;;3.47;;
3875;SDS011;1953;51.222;6.624;2022-10-16T01:47:38;4.50;;;2.87;;
3875;SDS011;1953;51.222;6.624;2022-10-16T01:52:23;3.87;;;3.00;;
3875;SDS011;1953;51.222;6.624;2022-10-16T01:57:08;4.80;;;3.33;;
3875;SDS011;1953;51.222;6.624;2022-10-16T02:01:52;8.00;;;3.00;;
3875;SDS011;1953;51.222;6.624;2022-10-16T02:06:40;7.33;;;3.27;;
3875;SDS011;1953;51.222;6.624;2022-10-16T02:11:22;5.00;;;2.90;;
3875;SDS011;1953;51.222;6.624;2022-10-16T02:16:05;5.07;;;3.37;;
3875;SDS011;1953;51.222;6.624;2022-10-16T02:20:50;3.30;;;3.00;;
3875;SDS011;1953;51.222;6.624;2022-10-16T02:25:37;9.33;;;3.43;;
3875;SDS011;1953;51.222;6.624;2022-10-16T02:30:24;3.10;;;2.70;;
3875;SDS011;1953;51.222;6.624;2022-10-16T02:35:11;2.80;;;2.60;;
3875;SDS011;1953;51.222;6.624;2022-10-16T02:39:55;3.83;;;2.50;;
3875;SDS011;1953;51.222;6.624;2022-10-16T02:44:40;3.80;;;2.17;;
3875;SDS011;1953;51.222;6.624;2022-10-16T02:49:23;3.60;;;2.00;;
3875;SDS011;1953;51.222;6.624;2022-10-16T02:54:05;5.37;;;2.30;;
3875;SDS011;1953;51.222;6.624;2022-10-16T02:58:47;4.27;;;2.20;;
3875;SDS011;1953;51.222;6.624;2022-10-16T03:03:31;4.80;;;3.10;;
3875;SDS011;1953;51.222;6.624;2022-10-16T03:08:14;4.20;;;2.70;;
3875;SDS011;1953;51.222;6.624;2022-10-16T03:12:56;3.87;;;2.80;;
3875;SDS011;1953;51.222;6.624;2022-10-16T03:17:39;6.13;;;2.93;;
3875;SDS011;1953;51.222;6.624;2022-10-16T03:22:23;2.60;;;2.40;;
3875;SDS011;1953;51.222;6.624;2022-10-16T03:27:05;2.60;;;2.40;;
3875;SDS011;1953;51.222;6.624;2022-10-16T03:31:48;5.10;;;3.37;;
3875;SDS011;1953;51.222;6.624;2022-10-16T03:36:30;5.80;;;2.70;;
3875;SDS011;1953;51.222;6.624;2022-10-16T03:41:14;10.17;;;3.37;;
3875;SDS011;1953;51.222;6.624;2022-10-16T03:45:57;4.07;;;2.87;;
3875;SDS011;1953;51.222;6.624;2022-10-16T03:50:39;5.70;;;2.60;;
3875;SDS011;1953;51.222;6.624;2022-10-16T03:55:22;7.80;;;3.00;;
3875;SDS011;1953;51.222;6.624;2022-10-16T04:00:06;6.70;;;2.80;;
3875;SDS011;1953;51.222;6.624;2022-10-16T04:04:49;7.83;;;3.13;;
3875;SDS011;1953;51.222;6.624;2022-10-16T04:09:32;10.03;;;2.90;;
3875;SDS011;1953;51.222;6.624;2022-10-16T04:14:14;6.00;;;3.00;;
3875;SDS011;1953;51.222;6.624;2022-10-16T04:18:58;4.27;;;2.80;;
3875;SDS011;1953;51.222;6.624;2022-10-16T04:23:41;7.67;;;3.20;;
3875;SDS011;1953;51.222;6.624;2022-10-16T04:28:24;5.40;;;2.90;;
3875;SDS011;1953;51.222;6.624;2022-10-16T04:33:07;4.63;;;3.17;;
3875;SDS011;1953;51.222;6.624;2022-10-16T04:37:52;5.10;;;3.30;;
3875;SDS011;1953;51.222;6.624;2022-10-16T04:42:34;4.27;;;2.67;;
3875;SDS011;1953;51.222;6.624;2022-10-16T04:47:17;5.63;;;3.10;;
3875;SDS011;1953;51.222;6.624;2022-10-16T04:51:59;3.70;;;2.90;;
3875;SDS011;1953;51.222;6.624;2022-10-16T04:56:43;11.90;;;3.13;;
3875;SDS011;1953;51.222;6.624;2022-10-16T05:01:28;6.90;;;2.97;;
3875;SDS011;1953;51.222;6.624;2022-10-16T05:06:10;5.13;;;3.20;;
3875;SDS011;1953;51.222;6.624;2022-10-16T05:10:52;6.20;;;3.27;;
3875;SDS011;1953;51.222;6.624;2022-10-16T05:15:36;3.33;;;2.63;;
3875;SDS011;1953;51.222;6.624;2022-10-16T05:20:19;5.30;;;3.30;;
3875;SDS011;1953;51.222;6.624;2022-10-16T05:25:01;4.97;;;3.30;;
3875;SDS011;1953;51.222;6.624;2022-10-16T05:29:44;5.40;;;3.57;;
3875;SDS011;1953;51.222;6.624;2022-10-16T05:34:28;4.50;;;3.27;;
3875;SDS011;1953;51.222;6.624;2022-10-16T05:39:11;3.20;;;2.90;;
3875;SDS011;1953;51.222;6.624;2022-10-16T05:43:53;4.00;;;3.60;;
3875;SDS011;1953;51.222;6.624;2022-10-16T05:48:36;5.17;;;3.60;;
3875;SDS011;1953;51.222;6.624;2022-10-16T05:53:20;6.13;;;3.93;;
3875;SDS011;1953;51.222;6.624;2022-10-16T05:58:06;5.47;;;4.13;;
3875;SDS011;1953;51.222;6.624;2022-10-16T06:02:48;8.63;;;4.20;;
3875;SDS011;1953;51.222;6.624;2022-10-16T06:07:33;5.40;;;3.77;;
3875;SDS011;1953;51.222;6.624;2022-10-16T06:12:18;4.67;;;4.17;;
3875;SDS011;1953;51.222;6.624;2022-10-16T06:17:01;6.60;;;3.93;;
3875;SDS011;1953;51.222;6.624;2022-10-16T06:21:43;5.27;;;4.00;;
3875;SDS011;1953;51.222;6.624;2022-10-16T06:26:26;6.23;;;4.10;;
3875;SDS011;1953;51.222;6.624;2022-10-16T06:31:12;6.20;;;3.70;;
3875;SDS011;1953;51.222;6.624;2022-10-16T06:35:59;6.20;;;5.60;;
3875;SDS011;1953;51.222;6.624;2022-10-16T06:40:44;8.83;;;7.23;;
3875;SDS011;1953;51.222;6.624;2022-10-16T06:45:26;10.63;;;5.50;;
3875;SDS011;1953;51.222;6.624;2022-10-16T06:50:10;6.10;;;5.20;;
3875;SDS011;1953;51.222;6.624;2022-10-16T06:54:52;8.40;;;6.83;;
3875;SDS011;1953;51.222;6.624;2022-10-16T06:59:35;10.73;;;7.27;;
3875;SDS011;1953;51.222;6.624;2022-10-16T07:04:17;7.70;;;4.83;;
3875;SDS011;1953;51.222;6.624;2022-10-16T07:09:02;5.07;;;4.33;;
3875;SDS011;1953;51.222;6.624;2022-10-16T07:13:47;6.73;;;6.10;;
3875;SDS011;1953;51.222;6.624;2022-10-16T07:18:30;8.50;;;5.80;;
3875;SDS011;1953;51.222;6.624;2022-10-16T07:23:13;5.73;;;4.17;;
3875;SDS011;1953;51.222;6.624;2022-10-16T07:27:57;4.97;;;4.47;;
3875;SDS011;1953;51.222;6.624;2022-10-16T07:32:39;5.80;;;4.20;;
3875;SDS011;1953;51.222;6.624;2022-10-16T07:37:22;6.87;;;4.03;;
3875;SDS011;1953;51.222;6.624;2022-10-16T07:42:04;6.47;;;5.00;;
3875;SDS011;1953;51.222;6.624;2022-10-16T07:46:49;6.70;;;4.50;;
3875;SDS011;1953;51.222;6.624;2022-10-16T07:51:32;4.33;;;3.60;;
3875;SDS011;1953;51.222;6.624;2022-10-16T07:56:15;7.33;;;3.83;;
3875;SDS011;1953;51.222;6.624;2022-10-16T08:00:58;4.93;;;3.30;;
3875;SDS011;1953;51.222;6.624;2022-10-16T08:05:42;3.60;;;3.30;;
3875;SDS011;1953;51.222;6.624;2022-10-16T08:10:25;8.13;;;3.27;;
3875;SDS011;1953;51.222;6.624;2022-10-16T08:15:09;4.47;;;3.50;;
3875;SDS011;1953;51.222;6.624;2022-10-16T08:19:52;10.03;;;3.30;;
3875;SDS011;1953;51.222;6.624;2022-10-16T08:24:36;7.83;;;2.80;;
3875;SDS011;1953;51.222;6.624;2022-10-16T08:29:18;4.30;;;3.10;;
3875;SDS011;1953;51.222;6.624;2022-10-16T08:34:01;3.70;;;3.17;;
3875;SDS011;1953;51.222;6.624;2022-10-16T08:38:43;6.00;;;2.57;;
3875;SDS011;1953;51.222;6.624;2022-10-16T08:43:33;3.53;;;2.40;;
3875;SDS011;1953;51.222;6.624;2022-10-16T08:48:24;2.53;;;2.27;;
3875;SDS011;1953;51.222;6.624;2022-10-16T08:53:15;7.30;;;2.40;;
3875;SDS011;1953;51.222;6.624;2022-10-16T08:58:01;4.30;;;2.30;;
3875;SDS011;1953;51.222;6.624;2022-10-16T09:02:46;7.90;;;2.20;;
3875;SDS011;1953;51.222;6.624;2022-10-16T09:07:35;5.50;;;2.13;;
3875;SDS011;1953;51.222;6.624;2022-10-16T09:12:26;3.93;;;2.00;;
3875;SDS011;1953;51.222;6.624;2022-10-16T09:17:19;3.47;;;1.70;;
3875;SDS011;1953;51.222;6.624;2022-10-16T09:22:12;3.07;;;1.77;;
3875;SDS011;1953;51.222;6.624;2022-10-16T09:26:57;8.03;;;2.03;;
3875;SDS011;1953;51.222;6.624;2022-10-16T09:31:40;2.60;;;1.60;;
3875;SDS011;1953;51.222;6.624;2022-10-16T09:36:23;3.63;;;1.67;;
3875;SDS011;1953;51.222;6.624;2022-10-16T09:41:13;1.93;;;1.53;;
3875;SDS011;1953;51.222;6.624;2022-10-16T09:45:59;4.87;;;1.43;;
3875;SDS011;1953;51.222;6.624;2022-10-16T09:50:42;4.23;;;1.70;;
3875;SDS011;1953;51.222;6.624;2022-10-16T09:55:25;6.37;;;1.63;;
3875;SDS011;1953;51.222;6.624;2022-10-16T10:00:09;4.20;;;1.80;;
3875;SDS011;1953;51.222;6.624;2022-10-16T10:04:53;2.57;;;1.40;;
3875;SDS011;1953;51.222;6.624;2022-10-16T10:09:37;3.03;;;1.50;;
3875;SDS011;1953;51.222;6.624;2022-10-16T10:14:22;1.80;;;1.27;;
3875;SDS011;1953;51.222;6.624;2022-10-16T10:19:09;2.90;;;1.50;;
3875;SDS011;1953;51.222;6.624;2022-10-16T10:23:56;3.83;;;1.53;;
3875;SDS011;1953;51.222;6.624;2022-10-16T10:28:49;6.10;;;1.53;;
3875;SDS011;1953;51.222;6.624;2022-10-16T10:33:39;2.37;;;1.30;;
3875;SDS011;1953;51.222;6.624;2022-10-16T10:38:29;3.20;;;1.50;;
3875;SDS011;1953;51.222;6.624;2022-10-16T10:43:20;4.33;;;1.57;;
3875;SDS011;1953;51.222;6.624;2022-10-16T10:48:21;2.67;;;1.30;;
3875;SDS011;1953;51.222;6.624;2022-10-16T10:53:25;2.13;;;1.70;;
3875;SDS011;1953;51.222;6.624;2022-10-16T10:58:23;5.00;;;1.23;;
3875;SDS011;1953;51.222;6.624;2022-10-16T11:03:25;6.47;;;1.57;;
3875;SDS011;1953;51.222;6.624;2022-10-16T11:08:17;3.27;;;1.90;;
3875;SDS011;1953;51.222;6.624;2022-10-16T11:13:07;4.10;;;1.50;;
3875;SDS011;1953;51.222;6.624;2022-10-16T11:18:04;2.40;;;1.60;;
3875;SDS011;1953;51.222;6.624;2022-10-16T11:22:50;4.43;;;1.43;;
3875;SDS011;1953;51.222;6.624;2022-10-16T11:27:38;5.83;;;2.00;;
3875;SDS011;1953;51.222;6.624;2022-10-16T11:32:27;2.33;;;1.17;;
3875;SDS011;1953;51.222;6.624;2022-10-16T11:37:17;3.43;;;1.47;;
3875;SDS011;1953;51.222;6.624;2022-10-16T11:42:04;4.50;;;1.50;;
3875;SDS011;1953;51.222;6.624;2022-10-16T11:46:53;1.03;;;0.93;;
3875;SDS011;1953;51.222;6.624;2022-10-16T11:51:45;2.97;;;1.43;;
3875;SDS011;1953;51.222;6.624;2022-10-16T11:56:36;1.20;;;1.10;;
3875;SDS011;1953;51.222;6.624;2022-10-16T12:01:22;1.60;;;1.40;;
3875;SDS011;1953;51.222;6.624;2022-10-16T12:08:38;2.37;;;1.67;;
3875;SDS011;1953;51.222;6.624;2022-10-16T12:13:31;1.80;;;1.70;;
3875;SDS011;1953;51.222;6.624;2022-10-16T12:18:24;4.77;;;1.87;;
3875;SDS011;1953;51.222;6.624;2022-10-16T12:23:07;6.13;;;1.70;;
3875;SDS011;1953;51.222;6.624;2022-10-16T12:28:05;1.60;;;1.20;;
3875;SDS011;1953;51.222;6.624;2022-10-16T12:32:59;1.70;;;1.30;;
3875;SDS011;1953;51.222;6.624;2022-10-16T12:37:44;1.67;;;1.40;;
3875;SDS011;1953;51.222;6.624;2022-10-16T12:42:33;3.40;;;1.37;;
3875;SDS011;1953;51.222;6.624;2022-10-16T12:47:21;1.97;;;1.20;;
3875;SDS011;1953;51.222;6.624;2022-10-16T12:57:16;3.03;;;1.50;;
3875;SDS011;1953;51.222;6.624;2022-10-16T13:02:30;1.70;;;1.37;;
3875;SDS011;1953;51.222;6.624;2022-10-16T13:07:38;2.93;;;1.33;;
3875;SDS011;1953;51.222;6.624;2022-10-16T13:12:37;2.70;;;1.27;;
3875;SDS011;1953;51.222;6.624;2022-10-16T13:17:42;1.53;;;1.43;;
3875;SDS011;1953;51.222;6.624;2022-10-16T13:22:33;2.17;;;1.27;;
3875;SDS011;1953;51.222;6.624;2022-10-16T13:27:27;4.13;;;1.20;;
3875;SDS011;1953;51.222;6.624;2022-10-16T13:32:16;1.43;;;1.30;;
3875;SDS011;1953;51.222;6.624;2022-10-16T13:37:15;1.90;;;1.07;;
3875;SDS011;1953;51.222;6.624;2022-10-16T13:42:03;2.47;;;1.17;;
3875;SDS011;1953;51.222;6.624;2022-10-16T13:46:57;1.60;;;1.10;;
3875;SDS011;1953;51.222;6.624;2022-10-16T13:51:41;1.57;;;1.40;;
3875;SDS011;1953;51.222;6.624;2022-10-16T13:56:38;1.17;;;1.07;;
3875;SDS011;1953;51.222;6.624;2022-10-16T14:01:22;3.27;;;0.97;;
3875;SDS011;1953;51.222;6.624;2022-10-16T14:06:10;1.00;;;1.00;;
3875;SDS011;1953;51.222;6.624;2022-10-16T14:10:56;3.37;;;1.50;;
3875;SDS011;1953;51.222;6.624;2022-10-16T14:15:45;2.60;;;1.47;;
3875;SDS011;1953;51.222;6.624;2022-10-16T14:20:30;2.40;;;1.20;;
3875;SDS011;1953;51.222;6.624;2022-10-16T14:25:23;1.73;;;1.10;;
3875;SDS011;1953;51.222;6.624;2022-10-16T14:30:10;1.37;;;1.17;;
3875;SDS011;1953;51.222;6.624;2022-10-16T14:34:57;1.27;;;1.10;;
3875;SDS011;1953;51.222;6.624;2022-10-16T14:39:40;2.70;;;1.00;;
3875;SDS011;1953;51.222;6.624;2022-10-16T14:44:23;4.30;;;1.27;;
3875;SDS011;1953;51.222;6.624;2022-10-16T14:49:15;1.47;;;1.17;;
3875;SDS011;1953;51.222;6.624;2022-10-16T14:54:02;2.27;;;1.17;;
3875;SDS011;1953;51.222;6.624;2022-10-16T14:58:44;2.60;;;2.20;;
3875;SDS011;1953;51.222;6.624;2022-10-16T15:03:27;2.43;;;1.90;;
3875;SDS011;1953;51.222;6.624;2022-10-16T15:08:09;5.80;;;2.80;;
3875;SDS011;1953;51.222;6.624;2022-10-16T15:12:54;1.90;;;1.80;;
3875;SDS011;1953;51.222;6.624;2022-10-16T15:17:37;5.40;;;2.00;;
3875;SDS011;1953;51.222;6.624;2022-10-16T15:22:19;2.77;;;1.73;;
3875;SDS011;1953;51.222;6.624;2022-10-16T15:27:03;4.27;;;2.60;;
3875;SDS011;1953;51.222;6.624;2022-10-16T15:31:47;3.70;;;1.53;;
3875;SDS011;1953;51.222;6.624;2022-10-16T15:36:32;3.73;;;1.90;;
3875;SDS011;1953;51.222;6.624;2022-10-16T15:41:17;6.80;;;4.30;;
3875;SDS011;1953;51.222;6.624;2022-10-16T15:46:00;3.97;;;3.20;;
3875;SDS011;1953;51.222;6.624;2022-10-16T15:50:45;5.57;;;3.33;;
3875;SDS011;1953;51.222;6.624;2022-10-16T15:55:27;4.70;;;4.00;;
3875;SDS011;1953;51.222;6.624;2022-10-16T16:00:11;6.67;;;3.47;;
3875;SDS011;1953;51.222;6.624;2022-10-16T16:04:55;4.97;;;3.60;;
3875;SDS011;1953;51.222;6.624;2022-10-16T16:09:39;8.83;;;6.47;;
3875;SDS011;1953;51.222;6.624;2022-10-16T16:14:21;16.10;;;9.90;;
3875;SDS011;1953;51.222;6.624;2022-10-16T16:19:05;26.10;;;13.30;;
3875;SDS011;1953;51.222;6.624;2022-10-16T16:23:47;20.93;;;12.90;;
3875;SDS011;1953;51.222;6.624;2022-10-16T16:28:31;20.67;;;14.13;;
3875;SDS011;1953;51.222;6.624;2022-10-16T16:33:14;23.07;;;15.00;;
3875;SDS011;1953;51.222;6.624;2022-10-16T16:37:56;29.70;;;16.87;;
3875;SDS011;1953;51.222;6.624;2022-10-16T16:42:39;43.43;;;25.00;;
3875;SDS011;1953;51.222;6.624;2022-10-16T16:47:23;24.90;;;16.77;;
3875;SDS011;1953;51.222;6.624;2022-10-16T16:52:05;23.40;;;14.80;;
3875;SDS011;1953;51.222;6.624;2022-10-16T16:56:48;19.30;;;12.57;;
3875;SDS011;1953;51.222;6.624;2022-10-16T17:01:30;19.67;;;11.27;;
3875;SDS011;1953;51.222;6.624;2022-10-16T17:06:14;9.53;;;7.00;;
3875;SDS011;1953;51.222;6.624;2022-10-16T17:10:57;10.53;;;6.73;;
3875;SDS011;1953;51.222;6.624;2022-10-16T17:15:45;10.20;;;6.00;;
3875;SDS011;1953;51.222;6.624;2022-10-16T17:20:27;8.60;;;5.90;;
3875;SDS011;1953;51.222;6.624;2022-10-16T17:25:11;12.53;;;8.03;;
3875;SDS011;1953;51.222;6.624;2022-10-16T17:29:53;9.13;;;7.73;;
3875;SDS011;1953;51.222;6.624;2022-10-16T17:34:36;11.93;;;6.33;;
3875;SDS011;1953;51.222;6.624;2022-10-16T17:39:19;10.07;;;7.67;;
3875;SDS011;1953;51.222;6.624;2022-10-16T17:44:04;8.17;;;6.20;;
3875;SDS011;1953;51.222;6.624;2022-10-16T17:48:48;10.53;;;7.33;;
3875;SDS011;1953;51.222;6.624;2022-10-16T17:53:31;10.53;;;7.00;;
3875;SDS011;1953;51.222;6.624;2022-10-16T17:58:14;6.57;;;5.67;;
3875;SDS011;1953;51.222;6.624;2022-10-16T18:02:57;10.50;;;5.90;;
3875;SDS011;1953;51.222;6.624;2022-10-16T18:07:40;8.70;;;5.40;;
3875;SDS011;1953;51.222;6.624;2022-10-16T18:12:22;6.40;;;5.60;;
3875;SDS011;1953;51.222;6.624;2022-10-16T18:17:05;6.70;;;5.23;;
3875;SDS011;1953;51.222;6.624;2022-10-16T18:21:49;5.10;;;4.50;;
3875;SDS011;1953;51.222;6.624;2022-10-16T18:26:32;7.20;;;4.60;;
3875;SDS011;1953;51.222;6.624;2022-10-16T18:31:15;4.87;;;3.57;;
3875;SDS011;1953;51.222;6.624;2022-10-16T18:35:59;4.20;;;3.70;;
3875;SDS011;1953;51.222;6.624;2022-10-16T18:40:44;4.33;;;3.47;;
3875;SDS011;1953;51.222;6.624;2022-10-16T18:45:26;8.80;;;4.97;;
3875;SDS011;1953;51.222;6.624;2022-10-16T18:50:09;10.20;;;5.00;;
3875;SDS011;1953;51.222;6.624;2022-10-16T18:54:54;13.47;;;5.23;;
3875;SDS011;1953;51.222;6.624;2022-10-16T18:59:39;10.60;;;6.00;;
3875;SDS011;1953;51.222;6.624;2022-10-16T19:04:21;18.17;;;12.80;;
3875;SDS011;1953;51.222;6.624;2022-10-16T19:09:04;9.50;;;6.00;;
3875;SDS011;1953;51.222;6.624;2022-10-16T19:13:48;9.23;;;6.50;;
3875;SDS011;1953;51.222;6.624;2022-10-16T19:18:33;8.47;;;6.20;;
3875;SDS011;1953;51.222;6.624;2022-10-16T19:23:18;8.63;;;6.83;;
3875;SDS011;1953;51.222;6.624;2022-10-16T19:28:01;9.00;;;6.00;;
3875;SDS011;1953;51.222;6.624;2022-10-16T19:32:47;7.40;;;6.30;;
3875;SDS011;1953;51.222;6.624;2022-10-16T19:37:33;12.07;;;6.80;;
3875;SDS011;1953;51.222;6.624;2022-10-16T19:42:16;8.00;;;6.20;;
3875;SDS011;1953;51.222;6.624;2022-10-16T19:46:58;8.70;;;6.37;;
3875;SDS011;1953;51.222;6.624;2022-10-16T19:51:41;11.97;;;6.20;;
3875;SDS011;1953;51.222;6.624;2022-10-16T19:56:25;7.40;;;6.30;;
3875;SDS011;1953;51.222;6.624;2022-10-16T20:01:09;7.83;;;5.50;;
3875;SDS011;1953;51.222;6.624;2022-10-16T20:05:52;7.67;;;5.73;;
3875;SDS011;1953;51.222;6.624;2022-10-16T20:10:36;10.40;;;5.50;;
3875;SDS011;1953;51.222;6.624;2022-10-16T20:15:20;11.27;;;6.20;;
3875;SDS011;1953;51.222;6.624;2022-10-16T20:20:02;11.50;;;6.10;;
3875;SDS011;1953;51.222;6.624;2022-10-16T20:24:45;17.90;;;6.90;;
3875;SDS011;1953;51.222;6.624;2022-10-16T20:29:28;11.83;;;6.77;;
3875;SDS011;1953;51.222;6.624;2022-10-16T20:34:11;11.00;;;5.53;;
3875;SDS011;1953;51.222;6.624;2022-10-16T20:38:54;9.47;;;5.23;;
3875;SDS011;1953;51.222;6.624;2022-10-16T20:43:38;5.90;;;5.20;;
3875;SDS011;1953;51.222;6.624;2022-10-16T20:48:21;7.70;;;5.30;;
3875;SDS011;1953;51.222;6.624;2022-10-16T20:53:05;6.63;;;5.13;;
3875;SDS011;1953;51.222;6.624;2022-10-16T20:57:48;8.73;;;5.20;;
3875;SDS011;1953;51.222;6.624;2022-10-16T21:02:31;6.13;;;5.27;;
3875;SDS011;1953;51.222;6.624;2022-10-16T21:07:13;10.07;;;4.83;;
3875;SDS011;1953;51.222;6.624;2022-10-16T21:11:57;5.80;;;5.20;;
3875;SDS011;1953;51.222;6.624;2022-10-16T21:16:39;6.57;;;5.60;;
3875;SDS011;1953;51.222;6.624;2022-10-16T21:21:22;6.37;;;5.60;;
3875;SDS011;1953;51.222;6.624;2022-10-16T21:26:06;6.80;;;6.10;;
3875;SDS011;1953;51.222;6.624;2022-10-16T21:30:50;6.27;;;5.67;;
3875;SDS011;1953;51.222;6.624;2022-10-16T21:35:32;7.03;;;5.60;;
3875;SDS011;1953;51.222;6.624;2022-10-16T21:40:15;8.73;;;6.40;;
3875;SDS011;1953;51.222;6.624;2022-10-16T21:44:57;7.80;;;6.30;;
3875;SDS011;1953;51.222;6.624;2022-10-16T21:49:41;8.27;;;5.90;;
3875;SDS011;1953;51.222;6.624;2022-10-16T21:54:23;9.53;;;5.77;;
3875;SDS011;1953;51.222;6.624;2022-10-16T21:59:06;8.83;;;5.73;;
3875;SDS011;1953;51.222;6.624;2022-10-16T22:03:49;7.03;;;6.00;;
3875;SDS011;1953;51.222;6.624;2022-10-16T22:08:33;9.07;;;5.77;;
3875;SDS011;1953;51.222;6.624;2022-10-16T22:13:16;7.10;;;5.40;;
3875;SDS011;1953;51.222;6.624;2022-10-16T22:17:58;7.73;;;6.07;;
3875;SDS011;1953;51.222;6.624;2022-10-16T22:22:41;11.90;;;6.33;;
3875;SDS011;1953;51.222;6.624;2022-10-16T22:27:24;6.53;;;5.87;;
3875;SDS011;1953;51.222;6.624;2022-10-16T22:32:07;8.10;;;5.97;;
3875;SDS011;1953;51.222;6.624;2022-10-16T22:36:49;12.07;;;7.20;;
3875;SDS011;1953;51.222;6.624;2022-10-16T22:41:31;8.47;;;6.80;;
3875;SDS011;1953;51.222;6.624;2022-10-16T22:46:16;10.67;;;7.07;;
3875;SDS011;1953;51.222;6.624;2022-10-16T22:51:00;11.90;;;7.40;;
3875;SDS011;1953;51.222;6.624;2022-10-16T22:55:43;9.40;;;7.77;;
3875;SDS011;1953;51.222;6.624;2022-10-16T23:00:25;8.73;;;7.13;;
3875;SDS011;1953;51.222;6.624;2022-10-16T23:05:09;8.50;;;7.60;;
3875;SDS011;1953;51.222;6.624;2022-10-16T23:09:52;11.83;;;8.33;;
3875;SDS011;1953;51.222;6.624;2022-10-16T23:14:34;12.80;;;8.37;;
3875;SDS011;1953;51.222;6.624;2022-10-16T23:19:17;13.20;;;8.13;;
3875;SDS011;1953;51.222;6.624;2022-10-16T23:24:01;11.60;;;7.90;;
3875;SDS011;1953;51.222;6.624;2022-10-16T23:28:43;10.37;;;8.90;;
3875;SDS011;1953;51.222;6.624;2022-10-16T23:33:26;14.47;;;9.27;;
3875;SDS011;1953;51.222;6.624;2022-10-16T23:38:08;12.47;;;9.17;;
3875;SDS011;1953;51.222;6.624;2022-10-16T23:42:52;12.93;;;9.83;;
3875;SDS011;1953;51.222;6.624;2022-10-16T23:47:35;14.50;;;9.37;;
3875;SDS011;1953;51.222;6.624;2022-10-16T23:52:17;14.80;;;9.60;;
3875;SDS011;1953;51.222;6.624;2022-10-16T23:56:59;11.93;;;10.00;;
